A- A+ FrançaisEnglishEspañol中国

le plus proche LFQT Merville-Calonne LFBT Tarbes-Lourdes-PyrénéesLFOT Tours-St-Symphorien LFEF Amboise Dierre

manche à air

La météo aéronautique pour les pilotes, la préparation du vol avec les METAR (METeorological Aerodrome Report, message d'observation des conditions météorologiques pour l'aviation) et Les TAF (Terminal Aerodrome Forecast : message de prévision à court terme des conditions météorologiques pour l'aviation). Et les autres ressources comme les VAC (Visual Approch Chart) et les NOTAM (Notice To Airman) pour préprer les vols.

Aéroport Minot AFB (USA) / OACI KMIB/ IATA MIB

L'altitude de l'aéroport Minot AFB est de 508 m=1667 ft. Il est situé à proximité de Minot (USA). La météo générale à 5 jours est disponible pour McHenry County situé à 57.2 km.

METAR de l'aéroport Minot AFB - KMIB

KMIB 291741Z AUTO 08021G26KT 2 1/4SM -RA BR OVC004 06/05 A2997 RMK AO2 VIS 1 3/8 RWY12 SLP166 $

Décodage du METAR de l'aéroport Minot AFB (US)

METAR émis par KMIB le dimanche 29 septembre 2019 à 17:41 heure TU. C'est un METAR généré automatiquement. Attention ce METAR est obsolète car il a été émis il y a 16 heure et 57 minutes.

La visibilité est de 3.6 km=2.25 sm.

La température est de 6°C=43 °F et le point rosée est de 5°C=41 °F . Ce qui correspond à 93% d'humidité relative.

Le QNH est de 1015 hPa=29.97 inHg

Vent de 21 kt=39 km/h avec des rafales à 26 kt =48 km/h, orienté à 80°.

Nuages : Couverture nuageuse soudée à 400 ft=120 mètres.

-RA BR

RMK AO2 VIS 1 3/8 RWY12 SLP166 $

TAF de l'aéroport Minot AFB - KMIB

KMIB 272300Z 2723/2823 VRB06KT 9999 BKN060 QNH2982INS BECMG 2802/2803 27009KT 9999 BKN030 QNH3002INS BECMG 2819/2820 09010G15KT 9000 -RA OVC020 QNH3015INS TX08/2817Z TN01/2811Z LAST NO AMDS AFT 2723 NEXT 3009

KMIB 272300Z 2723/2823 VRB06KT 9999 couverture nuageuse fragmentée à 060 QNH2982INS devenant 2802/2803 27009KT 9999 couverture nuageuse fragmentée à 030 QNH3002INS devenant 2819/2820 09010G15KT 9000 faible RA couverture nuageuse soudée à 020 QNH3015INS TX08/2817Z TN01/2811Z LAST NO AMDS AFT 2723 NEXT 3009

Aéroport à proximité de Minot AFB

Météo générale à 5 jours à McHenry County (57.2 km)KMOT Aéroport Minot Intl (18 km)KHBC Aéroport Mohall Mun (41 km)KRUG Aéroport Rugby Mun (99 km)KHZE Aéroport Mercer Co Regl (126 km)CYEN Aéroport Estevan (147 km)KISN Aéroport Sloulin Intl (171 km)

Vue aérienne de l'aéroport Minot AFB

NOTAM de l'aéroport Minot AFB

Les NOTAM sont fournis sans aucune garantie de leur actualité. Le pilote est le seul responsable de la vérification de sa validité avant de l'utiliser opérationnellement pour préparer un vol ou l'utiliser lors de sa navigation.

Pas de NOTAM

Sources des données